createdAt,value
2023-02-19T00:00:04.970Z,12.76
2023-02-19T00:01:04.944Z,12.79
2023-02-19T00:02:04.931Z,12.78
2023-02-19T00:03:04.944Z,12.75
2023-02-19T00:04:04.946Z,12.75
2023-02-19T00:05:04.945Z,12.74
2023-02-19T00:06:04.931Z,12.76
2023-02-19T00:07:04.994Z,12.78
2023-02-19T00:08:04.948Z,12.78
2023-02-19T00:09:04.932Z,12.77
2023-02-19T00:10:04.932Z,12.76
2023-02-19T00:11:04.947Z,12.76
2023-02-19T00:12:04.948Z,12.78
2023-02-19T00:13:04.933Z,12.8
2023-02-19T00:14:04.971Z,12.8
2023-02-19T00:15:04.948Z,12.8
2023-02-19T00:16:04.948Z,12.81
2023-02-19T00:17:04.935Z,12.82
2023-02-19T00:18:12.894Z,12.81
2023-02-19T00:19:04.949Z,12.8
2023-02-19T00:20:04.949Z,12.8
2023-02-19T00:21:04.935Z,12.79
2023-02-19T00:22:04.949Z,12.81
2023-02-19T00:23:04.949Z,12.81
2023-02-19T00:24:04.949Z,12.82
2023-02-19T00:25:04.935Z,12.82
2023-02-19T00:26:04.950Z,12.82
2023-02-19T00:27:04.952Z,12.82
2023-02-19T00:28:04.951Z,12.83
2023-02-19T00:29:04.936Z,12.83
2023-02-19T00:30:04.951Z,12.83
2023-02-19T00:31:04.953Z,12.85
2023-02-19T00:32:04.937Z,12.86
2023-02-19T00:33:04.938Z,12.84
2023-02-19T00:34:04.952Z,12.81
2023-02-19T00:35:04.954Z,12.81
2023-02-19T00:36:04.938Z,12.81
2023-02-19T00:37:04.938Z,12.79
2023-02-19T00:38:04.953Z,12.74
2023-02-19T00:39:04.953Z,12.69
2023-02-19T00:40:04.939Z,12.68
2023-02-19T00:41:04.954Z,12.65
2023-02-19T00:42:04.954Z,12.61
2023-02-19T00:43:04.954Z,12.6
2023-02-19T00:44:04.955Z,12.62
2023-02-19T00:45:04.954Z,12.61
2023-02-19T00:46:04.956Z,12.62
2023-02-19T00:47:04.954Z,12.64
2023-02-19T00:48:04.941Z,12.65
2023-02-19T00:49:04.955Z,12.64
2023-02-19T00:50:04.957Z,12.65
2023-02-19T00:51:04.941Z,12.66
2023-02-19T00:52:04.942Z,12.64
2023-02-19T00:53:04.957Z,12.59
2023-02-19T00:54:04.958Z,12.58
2023-02-19T00:55:04.942Z,12.57
2023-02-19T00:56:04.942Z,12.54
2023-02-19T00:57:04.958Z,12.53
2023-02-19T00:58:04.957Z,12.54
2023-02-19T00:59:04.943Z,12.54
2023-02-19T01:00:04.957Z,12.56
2023-02-19T01:01:04.958Z,12.59
2023-02-19T01:02:04.958Z,12.61
2023-02-19T01:03:04.944Z,12.62
2023-02-19T01:04:04.958Z,12.6
2023-02-19T01:05:04.959Z,12.61
2023-02-19T01:06:04.960Z,12.62
2023-02-19T01:07:04.946Z,12.65
2023-02-19T01:08:04.959Z,12.65
2023-02-19T01:09:04.960Z,12.65
2023-02-19T01:10:04.960Z,12.68
2023-02-19T01:11:04.946Z,12.69
2023-02-19T01:12:04.961Z,12.71
2023-02-19T01:13:04.962Z,12.73
2023-02-19T01:14:04.946Z,12.74
2023-02-19T01:15:04.947Z,12.75
2023-02-19T01:16:04.962Z,12.74
2023-02-19T01:17:04.963Z,12.72
2023-02-19T01:18:18.661Z,12.71
2023-02-19T01:19:04.948Z,12.7
2023-02-19T01:20:04.962Z,12.71
2023-02-19T01:21:04.962Z,12.7
2023-02-19T01:22:04.949Z,12.71
2023-02-19T01:23:04.962Z,12.71
2023-02-19T01:24:04.963Z,12.71
2023-02-19T01:25:04.964Z,12.72
2023-02-19T01:26:04.950Z,12.73
2023-02-19T01:27:21.440Z,12.7
2023-02-19T01:28:04.965Z,12.7
2023-02-19T01:29:04.964Z,12.71
2023-02-19T01:30:04.950Z,12.71
2023-02-19T01:31:04.964Z,12.7
2023-02-19T01:32:04.966Z,12.68
2023-02-19T01:33:04.965Z,12.67
2023-02-19T01:34:04.951Z,12.66
2023-02-19T01:35:04.966Z,12.67
2023-02-19T01:36:04.967Z,12.68
2023-02-19T01:37:04.953Z,12.67
2023-02-19T01:38:04.952Z,12.64
2023-02-19T01:39:04.967Z,12.63
2023-02-19T01:40:04.968Z,12.66
2023-02-19T01:41:04.952Z,12.69
2023-02-19T01:42:04.967Z,12.72
2023-02-19T01:43:04.968Z,12.74
2023-02-19T01:44:04.967Z,12.77
2023-02-19T01:45:04.953Z,12.78
2023-02-19T01:46:04.968Z,12.78
2023-02-19T01:47:04.968Z,12.78
2023-02-19T01:48:04.968Z,12.78
2023-02-19T01:49:04.954Z,12.78
2023-02-19T01:50:04.968Z,12.74
2023-02-19T01:51:04.970Z,12.72
2023-02-19T01:52:04.969Z,12.75
2023-02-19T01:53:04.955Z,12.77
2023-02-19T01:54:04.969Z,12.77
2023-02-19T01:55:04.971Z,12.78
2023-02-19T01:56:04.956Z,12.79
2023-02-19T01:57:04.956Z,12.78
2023-02-19T01:58:04.970Z,12.78
2023-02-19T01:59:04.971Z,12.81
2023-02-19T02:00:04.958Z,12.84
2023-02-19T02:01:04.995Z,12.85
2023-02-19T02:02:04.971Z,12.85
2023-02-19T02:03:04.971Z,12.89
2023-02-19T02:04:04.958Z,12.92
2023-02-19T02:05:04.972Z,12.92
2023-02-19T02:06:04.973Z,12.91
2023-02-19T02:07:04.972Z,12.89
2023-02-19T02:08:04.959Z,12.9
2023-02-19T02:09:04.973Z,12.89
2023-02-19T02:10:04.975Z,12.85
2023-02-19T02:11:04.974Z,12.81
2023-02-19T02:12:04.959Z,12.79
2023-02-19T02:13:04.974Z,12.75
2023-02-19T02:14:04.976Z,12.73
2023-02-19T02:15:04.960Z,12.73
2023-02-19T02:16:04.960Z,12.72
2023-02-19T02:17:04.974Z,12.69
2023-02-19T02:18:24.665Z,12.68
2023-02-19T02:19:04.961Z,12.69
2023-02-19T02:20:04.961Z,12.68
2023-02-19T02:21:04.976Z,12.67
2023-02-19T02:22:04.978Z,12.69
2023-02-19T02:23:04.962Z,12.71
2023-02-19T02:24:04.962Z,12.7
2023-02-19T02:25:04.977Z,12.7
2023-02-19T02:26:04.978Z,12.69
2023-02-19T02:27:04.963Z,12.71
2023-02-19T02:28:04.977Z,12.69
2023-02-19T02:29:04.977Z,12.69
2023-02-19T02:30:04.978Z,12.71
2023-02-19T02:31:04.965Z,12.73
2023-02-19T02:32:04.978Z,12.73
2023-02-19T02:33:04.979Z,12.74
2023-02-19T02:34:04.979Z,12.74
2023-02-19T02:35:04.965Z,12.72
2023-02-19T02:36:04.979Z,12.7
2023-02-19T02:37:04.980Z,12.69
2023-02-19T02:38:04.965Z,12.7
2023-02-19T02:39:04.965Z,12.71
2023-02-19T02:40:04.981Z,12.69
2023-02-19T02:41:04.982Z,12.67
2023-02-19T02:42:04.966Z,12.66
2023-02-19T02:43:04.966Z,12.65
2023-02-19T02:44:04.982Z,12.65
2023-02-19T02:45:04.990Z,12.64
2023-02-19T02:46:04.967Z,12.63
2023-02-19T02:47:04.981Z,12.62
2023-02-19T02:48:04.981Z,12.61
2023-02-19T02:49:04.982Z,12.63
2023-02-19T02:50:04.968Z,12.65
2023-02-19T02:51:04.982Z,12.66
2023-02-19T02:52:04.983Z,12.67
2023-02-19T02:53:04.984Z,12.69
2023-02-19T02:54:04.969Z,12.69
2023-02-19T02:55:04.983Z,12.68
2023-02-19T02:56:04.985Z,12.7
2023-02-19T02:57:04.983Z,12.72
2023-02-19T02:58:04.970Z,12.7
2023-02-19T02:59:04.984Z,12.68
2023-02-19T03:00:04.986Z,12.67
2023-02-19T03:01:04.970Z,12.67
2023-02-19T03:02:04.972Z,12.65
2023-02-19T03:03:04.986Z,12.65
2023-02-19T03:04:04.986Z,12.64
2023-02-19T03:05:04.971Z,12.62
2023-02-19T03:06:21.465Z,12.6
2023-02-19T03:07:04.987Z,12.58
2023-02-19T03:08:04.986Z,12.58
2023-02-19T03:09:04.972Z,12.59
2023-02-19T03:10:04.986Z,12.57
2023-02-19T03:11:04.986Z,12.57
2023-02-19T03:12:04.987Z,12.57
2023-02-19T03:13:04.973Z,12.56
2023-02-19T03:14:04.987Z,12.56
2023-02-19T03:15:04.988Z,12.58
2023-02-19T03:16:04.989Z,12.61
2023-02-19T03:17:04.974Z,12.61
2023-02-19T03:18:30.666Z,12.58
2023-02-19T03:19:05.670Z,12.55
2023-02-19T03:20:04.989Z,12.53
2023-02-19T03:21:04.976Z,12.49
2023-02-19T03:22:04.990Z,12.47
2023-02-19T03:23:04.990Z,12.47
2023-02-19T03:24:04.975Z,12.46
2023-02-19T03:25:04.976Z,12.47
2023-02-19T03:26:04.990Z,12.47
2023-02-19T03:27:04.992Z,12.47
2023-02-19T03:28:04.976Z,12.46
2023-02-19T03:29:04.991Z,12.44
2023-02-19T03:30:04.992Z,12.41
2023-02-19T03:31:04.992Z,12.42
2023-02-19T03:32:04.977Z,12.43
2023-02-19T03:33:04.991Z,12.41
2023-02-19T03:34:05.019Z,12.4
2023-02-19T03:35:04.992Z,12.4
2023-02-19T03:36:04.978Z,12.4
2023-02-19T03:37:04.992Z,12.38
2023-02-19T03:38:04.994Z,12.4
2023-02-19T03:39:04.993Z,12.4
2023-02-19T03:40:04.980Z,12.4
2023-02-19T03:41:05.042Z,12.38
2023-02-19T03:42:04.995Z,12.39
2023-02-19T03:43:04.980Z,12.41
2023-02-19T03:44:04.980Z,12.43
2023-02-19T03:45:04.995Z,12.42
2023-02-19T03:46:04.996Z,12.4
2023-02-19T03:47:04.981Z,12.39
2023-02-19T03:48:05.021Z,12.38
2023-02-19T03:49:04.996Z,12.36
2023-02-19T03:50:04.996Z,12.38
2023-02-19T03:51:04.981Z,12.39
2023-02-19T03:52:04.996Z,12.38
2023-02-19T03:53:04.997Z,12.38
2023-02-19T03:54:04.996Z,12.39
2023-02-19T03:55:04.982Z,12.39
2023-02-19T03:56:04.996Z,12.37
2023-02-19T03:57:04.999Z,12.35
2023-02-19T03:58:04.997Z,12.33
2023-02-19T03:59:04.983Z,12.32
2023-02-19T04:00:04.998Z,12.31
2023-02-19T04:01:04.998Z,12.29
2023-02-19T04:02:04.984Z,12.27
2023-02-19T04:03:04.984Z,12.26
2023-02-19T04:04:04.998Z,12.25
2023-02-19T04:05:04.999Z,12.28
2023-02-19T04:06:04.985Z,12.32
2023-02-19T04:07:04.985Z,12.33
2023-02-19T04:08:05.000Z,12.32
2023-02-19T04:09:04.999Z,12.33
2023-02-19T04:10:04.985Z,12.34
2023-02-19T04:11:05.001Z,12.32
2023-02-19T04:12:05.001Z,12.31
2023-02-19T04:13:05.000Z,12.31
2023-02-19T04:14:04.986Z,12.3
2023-02-19T04:15:05.001Z,12.3
2023-02-19T04:16:05.003Z,12.29
2023-02-19T04:17:05.001Z,12.3
2023-02-19T04:18:20.185Z,12.3
2023-02-19T04:19:11.666Z,12.3
2023-02-19T04:20:05.003Z,12.29
2023-02-19T04:21:05.003Z,12.29
2023-02-19T04:22:04.989Z,12.28
2023-02-19T04:23:05.002Z,12.27
2023-02-19T04:24:05.004Z,12.25
2023-02-19T04:25:04.989Z,12.27
2023-02-19T04:26:04.989Z,12.28
2023-02-19T04:27:05.004Z,12.26
2023-02-19T04:28:05.005Z,12.24
2023-02-19T04:29:04.990Z,12.2
2023-02-19T04:30:04.990Z,12.16
2023-02-19T04:31:05.005Z,12.13
2023-02-19T04:32:05.005Z,12.11
2023-02-19T04:33:04.990Z,12.07
2023-02-19T04:34:05.005Z,12.03
2023-02-19T04:35:05.006Z,12.01
2023-02-19T04:36:05.005Z,11.98
2023-02-19T04:37:04.992Z,11.95
2023-02-19T04:38:05.007Z,11.91
2023-02-19T04:39:05.008Z,11.9
2023-02-19T04:40:05.006Z,11.86
2023-02-19T04:41:04.993Z,11.85
2023-02-19T04:42:05.006Z,11.83
2023-02-19T04:43:05.008Z,11.8
2023-02-19T04:45:04.993Z,11.77
2023-02-19T04:46:05.007Z,11.75
2023-02-19T04:48:04.994Z,11.75
2023-02-19T04:49:04.994Z,11.74
2023-02-19T04:50:05.009Z,11.71
2023-02-19T04:51:05.009Z,11.69
2023-02-19T04:52:04.994Z,11.7
2023-02-19T04:53:05.009Z,11.68
2023-02-19T04:54:05.009Z,11.66
2023-02-19T04:55:05.010Z,11.64
2023-02-19T04:56:04.995Z,11.62
2023-02-19T04:57:05.009Z,11.59
2023-02-19T04:58:05.011Z,11.57
2023-02-19T04:59:05.010Z,11.57
2023-02-19T05:00:04.996Z,11.58
2023-02-19T05:01:05.010Z,11.57
2023-02-19T05:02:05.011Z,11.56
2023-02-19T05:03:05.012Z,11.57
2023-02-19T05:04:04.997Z,11.55
2023-02-19T05:05:05.011Z,11.53
2023-02-19T05:06:05.012Z,11.55
2023-02-19T05:07:04.997Z,11.56
2023-02-19T05:08:04.998Z,11.57
2023-02-19T05:09:05.013Z,11.57
2023-02-19T05:10:05.013Z,11.57
2023-02-19T05:11:04.998Z,11.6
2023-02-19T05:12:04.998Z,11.61
2023-02-19T05:13:05.014Z,11.59
2023-02-19T05:14:05.014Z,11.57
2023-02-19T05:15:04.999Z,11.56
2023-02-19T05:16:05.013Z,11.53
2023-02-19T05:17:05.014Z,11.51
2023-02-19T05:18:19.443Z,11.49
2023-02-19T05:19:05.000Z,11.49
2023-02-19T05:20:05.014Z,11.5
2023-02-19T05:21:05.016Z,11.52
2023-02-19T05:22:05.014Z,11.53
2023-02-19T05:23:05.001Z,11.54
2023-02-19T05:24:05.015Z,11.54
2023-02-19T05:25:05.016Z,11.52
2023-02-19T05:26:05.015Z,11.53
2023-02-19T05:27:05.001Z,11.53
2023-02-19T05:28:21.495Z,11.51
2023-02-19T05:29:12.976Z,11.5
2023-02-19T05:30:05.002Z,11.48
2023-02-19T05:31:05.003Z,11.48
2023-02-19T05:32:05.017Z,11.47
2023-02-19T05:33:05.019Z,11.49
2023-02-19T05:34:05.003Z,11.54
2023-02-19T05:35:05.004Z,11.55
2023-02-19T05:36:05.018Z,11.54
2023-02-19T05:37:05.018Z,11.53
2023-02-19T05:38:05.004Z,11.53
2023-02-19T05:39:05.018Z,11.52
2023-02-19T05:40:05.018Z,11.5
2023-02-19T05:41:05.019Z,11.48
2023-02-19T05:42:05.004Z,11.47
2023-02-19T05:43:05.019Z,11.45
2023-02-19T05:44:05.020Z,11.44
2023-02-19T05:45:05.019Z,11.45
2023-02-19T05:46:05.005Z,11.46
2023-02-19T05:47:05.020Z,11.46
2023-02-19T05:48:05.022Z,11.45
2023-02-19T05:49:05.031Z,11.45
2023-02-19T05:50:05.006Z,11.46
2023-02-19T05:51:05.020Z,11.46
2023-02-19T05:52:05.021Z,11.47
2023-02-19T05:53:05.007Z,11.48
2023-02-19T05:54:05.007Z,11.49
2023-02-19T05:55:05.021Z,11.47
2023-02-19T05:56:05.022Z,11.46
2023-02-19T05:57:05.007Z,11.44
2023-02-19T05:58:05.022Z,11.43
2023-02-19T05:59:05.022Z,11.41
2023-02-19T06:00:05.022Z,11.4
2023-02-19T06:01:05.008Z,11.4
2023-02-19T06:02:05.022Z,11.38
2023-02-19T06:03:05.090Z,11.34
2023-02-19T06:04:05.023Z,11.31
2023-02-19T06:05:05.009Z,11.31
2023-02-19T06:06:05.023Z,11.29
2023-02-19T06:07:05.025Z,11.28
2023-02-19T06:08:05.024Z,11.28
2023-02-19T06:09:05.010Z,11.28
2023-02-19T06:10:05.048Z,11.28
2023-02-19T06:11:05.026Z,11.3
2023-02-19T06:12:05.011Z,11.35
2023-02-19T06:13:05.011Z,11.35
2023-02-19T06:14:05.025Z,11.34
2023-02-19T06:15:05.027Z,11.33
2023-02-19T06:16:05.011Z,11.34
2023-02-19T06:17:05.049Z,11.37
2023-02-19T06:18:05.027Z,11.37
2023-02-19T06:19:05.027Z,11.38
2023-02-19T06:20:05.012Z,11.41
2023-02-19T06:21:05.026Z,11.43
2023-02-19T06:22:05.026Z,11.44
2023-02-19T06:23:05.027Z,11.44
2023-02-19T06:24:05.014Z,11.43
2023-02-19T06:25:05.027Z,11.44
2023-02-19T06:26:05.028Z,11.45
2023-02-19T06:27:05.028Z,11.47
2023-02-19T06:28:05.014Z,11.5
2023-02-19T06:29:05.028Z,11.47
2023-02-19T06:30:05.030Z,11.43
2023-02-19T06:31:05.028Z,11.42
2023-02-19T06:32:05.014Z,11.43
2023-02-19T06:33:05.030Z,11.43
2023-02-19T06:34:05.030Z,11.44
2023-02-19T06:35:05.015Z,11.46
2023-02-19T06:36:05.015Z,11.46
2023-02-19T06:37:05.030Z,11.44
2023-02-19T06:38:05.031Z,11.44
2023-02-19T06:39:05.016Z,11.47
2023-02-19T06:40:05.016Z,11.49
2023-02-19T06:41:05.031Z,11.52
2023-02-19T06:42:05.031Z,11.53
2023-02-19T06:43:05.017Z,11.5
2023-02-19T06:44:05.032Z,11.5
2023-02-19T06:45:05.031Z,11.53
2023-02-19T06:46:05.031Z,11.58
2023-02-19T06:47:05.017Z,11.61
2023-02-19T06:48:05.032Z,11.59
2023-02-19T06:49:12.990Z,11.57
2023-02-19T06:50:05.033Z,11.57
2023-02-19T06:51:05.018Z,11.56
2023-02-19T06:52:05.032Z,11.58
2023-02-19T06:53:05.034Z,11.57
2023-02-19T06:54:05.033Z,11.57
2023-02-19T06:55:05.020Z,11.59
2023-02-19T06:56:05.082Z,11.6
2023-02-19T06:57:05.035Z,11.61
2023-02-19T06:58:05.020Z,11.63
2023-02-19T06:59:05.020Z,11.62
2023-02-19T07:00:05.035Z,11.63
2023-02-19T07:01:05.035Z,11.66
2023-02-19T07:02:05.021Z,11.69
2023-02-19T07:03:05.059Z,11.7
2023-02-19T07:04:05.036Z,11.71
2023-02-19T07:05:05.035Z,11.73
2023-02-19T07:06:05.021Z,11.75
2023-02-19T07:07:05.035Z,11.76
2023-02-19T07:08:05.036Z,11.77
2023-02-19T07:09:05.036Z,11.79
2023-02-19T07:10:05.022Z,11.83
2023-02-19T07:11:05.036Z,11.83
2023-02-19T07:12:05.037Z,11.84
2023-02-19T07:13:05.038Z,11.83
2023-02-19T07:14:05.023Z,11.83
2023-02-19T07:15:05.038Z,11.82
2023-02-19T07:16:05.038Z,11.81
2023-02-19T07:17:05.023Z,11.78
2023-02-19T07:18:05.024Z,11.77
2023-02-19T07:19:05.039Z,11.75
2023-02-19T07:20:05.040Z,11.76
2023-02-19T07:21:05.024Z,11.78
2023-02-19T07:22:05.024Z,11.79
2023-02-19T07:23:05.040Z,11.79
2023-02-19T07:24:05.040Z,11.82
2023-02-19T07:25:05.025Z,11.84
2023-02-19T07:26:05.039Z,11.86
2023-02-19T07:27:05.040Z,11.86
2023-02-19T07:28:05.041Z,11.86
2023-02-19T07:29:05.026Z,11.89
2023-02-19T07:30:05.040Z,11.86
2023-02-19T07:31:05.041Z,11.82
2023-02-19T07:32:05.040Z,11.8
2023-02-19T07:33:05.027Z,11.8
2023-02-19T07:34:05.041Z,11.8
2023-02-19T07:35:05.043Z,11.83
2023-02-19T07:36:05.052Z,11.87
2023-02-19T07:37:05.027Z,11.88
2023-02-19T07:38:05.043Z,11.86
2023-02-19T07:39:05.043Z,11.87
2023-02-19T07:40:05.028Z,11.89
2023-02-19T07:41:05.029Z,11.87
2023-02-19T07:42:05.043Z,11.87
2023-02-19T07:43:05.045Z,11.89
2023-02-19T07:44:05.029Z,11.91
2023-02-19T07:45:05.043Z,11.91
2023-02-19T07:46:05.044Z,11.89
2023-02-19T07:47:05.043Z,11.86
2023-02-19T07:48:05.030Z,11.83
2023-02-19T07:49:18.719Z,11.77
2023-02-19T07:50:05.044Z,11.77
2023-02-19T07:51:05.044Z,11.79
2023-02-19T07:52:05.045Z,11.78
2023-02-19T07:53:05.045Z,11.76
2023-02-19T07:54:05.047Z,11.77
2023-02-19T07:55:05.046Z,11.81
2023-02-19T07:56:05.031Z,11.84
2023-02-19T07:57:05.046Z,11.85
2023-02-19T07:58:05.048Z,11.86
2023-02-19T07:59:05.032Z,11.87
2023-02-19T08:00:05.032Z,11.85
2023-02-19T08:01:05.047Z,11.84
2023-02-19T08:02:05.047Z,11.86
2023-02-19T08:03:05.034Z,11.89
2023-02-19T08:04:05.034Z,11.92
2023-02-19T08:05:05.048Z,11.94
2023-02-19T08:06:05.049Z,11.97
2023-02-19T08:07:05.035Z,12.01
2023-02-19T08:08:05.048Z,12.04
2023-02-19T08:09:05.049Z,12.05
2023-02-19T08:10:05.049Z,12.1
2023-02-19T08:11:05.035Z,12.14
2023-02-19T08:12:05.048Z,12.17
2023-02-19T08:13:05.050Z,12.22
2023-02-19T08:14:05.050Z,12.23
2023-02-19T08:15:05.035Z,12.23
2023-02-19T08:16:05.049Z,12.21
2023-02-19T08:17:05.050Z,12.22
2023-02-19T08:18:05.051Z,12.2
2023-02-19T08:19:05.036Z,12.2
2023-02-19T08:20:05.050Z,12.22
2023-02-19T08:21:05.051Z,12.28
2023-02-19T08:22:05.037Z,12.35
2023-02-19T08:23:05.037Z,12.39
2023-02-19T08:24:05.052Z,12.38
2023-02-19T08:25:05.053Z,12.39
2023-02-19T08:26:05.037Z,12.41
2023-02-19T08:27:05.039Z,12.41
2023-02-19T08:28:05.053Z,12.4
2023-02-19T08:29:05.053Z,12.39
2023-02-19T08:30:05.039Z,12.41
2023-02-19T08:31:05.052Z,12.41
2023-02-19T08:32:05.054Z,12.41
2023-02-19T08:33:05.053Z,12.45
2023-02-19T08:34:05.039Z,12.46
2023-02-19T08:35:05.053Z,12.46
2023-02-19T08:36:05.054Z,12.48
2023-02-19T08:37:05.054Z,12.51
2023-02-19T08:38:05.040Z,12.56
2023-02-19T08:39:05.054Z,12.63
2023-02-19T08:40:05.056Z,12.69
2023-02-19T08:41:05.041Z,12.75
2023-02-19T08:42:05.041Z,12.74
2023-02-19T08:43:05.056Z,12.73
2023-02-19T08:44:05.057Z,12.75
2023-02-19T08:45:05.041Z,12.79
2023-02-19T08:46:05.042Z,12.78
2023-02-19T08:47:05.057Z,12.78
2023-02-19T08:48:05.057Z,12.77
2023-02-19T08:49:24.689Z,12.76
2023-02-19T08:50:05.057Z,12.77
2023-02-19T08:51:05.057Z,12.8
2023-02-19T08:52:05.057Z,12.82
2023-02-19T08:53:05.043Z,12.84
2023-02-19T08:54:05.057Z,12.83
2023-02-19T08:55:05.057Z,12.81
2023-02-19T08:56:05.058Z,12.81
2023-02-19T08:57:05.045Z,12.82
2023-02-19T08:58:05.058Z,12.86
2023-02-19T08:59:05.059Z,12.93
2023-02-19T09:00:05.059Z,13.03
2023-02-19T09:01:05.045Z,13.14
2023-02-19T09:02:05.059Z,13.23
2023-02-19T09:03:05.061Z,13.3
2023-02-19T09:04:05.045Z,13.35
2023-02-19T09:05:05.046Z,13.34
2023-02-19T09:06:05.061Z,13.31
2023-02-19T09:07:05.061Z,13.32
2023-02-19T09:08:05.046Z,13.34
2023-02-19T09:09:05.047Z,13.35
2023-02-19T09:10:05.062Z,13.33
2023-02-19T09:11:05.062Z,13.36
2023-02-19T09:12:05.047Z,13.38
2023-02-19T09:13:05.061Z,13.38
2023-02-19T09:14:05.063Z,13.39
2023-02-19T09:15:05.062Z,13.44
2023-02-19T09:16:05.048Z,13.48
2023-02-19T09:17:05.062Z,13.51
2023-02-19T09:18:05.063Z,13.51
2023-02-19T09:19:05.063Z,13.53
2023-02-19T09:20:05.049Z,13.53
2023-02-19T09:21:05.063Z,13.48
2023-02-19T09:22:05.065Z,13.43
2023-02-19T09:23:05.050Z,13.39
2023-02-19T09:24:05.050Z,13.37
2023-02-19T09:25:05.065Z,13.37
2023-02-19T09:26:05.066Z,13.38
2023-02-19T09:27:05.050Z,13.39
2023-02-19T09:28:05.052Z,13.43
2023-02-19T09:29:05.066Z,13.47
2023-02-19T09:30:05.065Z,13.52
2023-02-19T09:31:05.052Z,13.59
2023-02-19T09:32:05.066Z,13.66
2023-02-19T09:33:05.067Z,13.75
2023-02-19T09:34:05.066Z,13.86
2023-02-19T09:35:05.053Z,13.91
2023-02-19T09:36:05.066Z,13.9
2023-02-19T09:37:05.068Z,13.92
2023-02-19T09:38:05.067Z,13.98
2023-02-19T09:39:05.054Z,13.98
2023-02-19T09:40:05.067Z,13.97
2023-02-19T09:41:05.069Z,13.93
2023-02-19T09:42:05.069Z,13.84
2023-02-19T09:43:05.054Z,13.79
2023-02-19T09:44:05.069Z,13.77
2023-02-19T09:45:05.069Z,13.77
2023-02-19T09:46:05.055Z,13.72
2023-02-19T09:47:05.055Z,13.67
2023-02-19T09:48:05.069Z,13.64
2023-02-19T09:49:30.664Z,13.61
2023-02-19T09:50:05.668Z,13.61
2023-02-19T09:51:05.056Z,13.64
2023-02-19T09:52:05.070Z,13.59
2023-02-19T09:53:05.070Z,13.58
2023-02-19T09:54:05.057Z,13.61
2023-02-19T09:55:05.072Z,13.64
2023-02-19T09:56:05.071Z,13.63
2023-02-19T09:57:05.071Z,13.61
2023-02-19T09:58:05.057Z,13.61
2023-02-19T09:59:05.073Z,13.62
2023-02-19T10:00:05.074Z,13.64
2023-02-19T10:01:05.072Z,13.65
2023-02-19T10:02:05.058Z,13.64
2023-02-19T10:03:05.073Z,13.65
2023-02-19T10:04:05.074Z,13.69
2023-02-19T10:05:05.073Z,13.76
2023-02-19T10:06:05.059Z,13.76
2023-02-19T10:07:05.074Z,13.81
2023-02-19T10:08:05.076Z,13.9
2023-02-19T10:09:05.060Z,14.03
2023-02-19T10:10:05.060Z,14.12
2023-02-19T10:11:05.075Z,14.22
2023-02-19T10:12:05.077Z,14.28
2023-02-19T10:13:05.061Z,14.31
2023-02-19T10:14:05.075Z,14.3
2023-02-19T10:15:05.076Z,14.27
2023-02-19T10:16:05.077Z,14.24
2023-02-19T10:17:05.063Z,14.16
2023-02-19T10:18:05.076Z,14.09
2023-02-19T10:19:05.077Z,14.02
2023-02-19T10:20:05.077Z,13.95
2023-02-19T10:21:05.063Z,13.93
2023-02-19T10:22:05.078Z,13.97
2023-02-19T10:23:05.079Z,14.02
2023-02-19T10:24:05.077Z,14.09
2023-02-19T10:25:05.064Z,14.18
2023-02-19T10:26:05.118Z,14.26
2023-02-19T10:27:05.079Z,14.37
2023-02-19T10:28:05.064Z,14.46
2023-02-19T10:29:05.064Z,14.5
2023-02-19T10:30:05.080Z,14.54
2023-02-19T10:31:05.080Z,14.62
2023-02-19T10:32:05.065Z,14.63
2023-02-19T10:33:05.129Z,14.66
2023-02-19T10:34:05.081Z,14.68
2023-02-19T10:35:05.080Z,14.65
2023-02-19T10:36:05.066Z,14.58
2023-02-19T10:37:05.080Z,14.46
2023-02-19T10:38:05.082Z,14.31
2023-02-19T10:39:05.081Z,14.26
2023-02-19T10:40:05.067Z,14.2
2023-02-19T10:41:05.082Z,14.13
2023-02-19T10:42:05.083Z,14.04
2023-02-19T10:43:05.083Z,13.99
2023-02-19T10:44:05.068Z,13.93
2023-02-19T10:45:05.082Z,13.85
2023-02-19T10:46:05.083Z,13.76
2023-02-19T10:47:05.069Z,13.62
2023-02-19T10:48:05.069Z,13.5
2023-02-19T10:49:20.199Z,13.42
2023-02-19T10:50:11.681Z,13.4
2023-02-19T10:51:05.070Z,13.42
2023-02-19T10:52:05.070Z,13.45
2023-02-19T10:53:05.085Z,13.43
2023-02-19T10:54:05.085Z,13.44
2023-02-19T10:55:05.071Z,13.45
2023-02-19T10:56:05.135Z,13.47
2023-02-19T10:57:05.085Z,13.43
2023-02-19T10:58:05.085Z,13.39
2023-02-19T10:59:05.072Z,13.36
2023-02-19T11:00:05.086Z,13.3
2023-02-19T11:01:05.086Z,13.25
2023-02-19T11:02:05.087Z,13.26
2023-02-19T11:03:05.072Z,13.3
2023-02-19T11:04:05.087Z,13.34
2023-02-19T11:05:05.088Z,13.39
2023-02-19T11:06:05.087Z,13.47
2023-02-19T11:07:05.073Z,13.58
2023-02-19T11:08:05.088Z,13.66
2023-02-19T11:09:05.090Z,13.67
2023-02-19T11:10:05.074Z,13.62
2023-02-19T11:11:05.074Z,13.56
2023-02-19T11:12:05.088Z,13.47
2023-02-19T11:13:05.091Z,13.38
2023-02-19T11:14:05.075Z,13.3
2023-02-19T11:15:05.075Z,13.22
2023-02-19T11:16:05.089Z,13.15
2023-02-19T11:17:05.115Z,13.16
2023-02-19T11:18:05.077Z,13.17
2023-02-19T11:19:05.091Z,13.12
2023-02-19T11:20:05.091Z,13.04
2023-02-19T11:21:05.091Z,12.99
2023-02-19T11:22:05.077Z,12.97
2023-02-19T11:23:05.091Z,12.95
2023-02-19T11:24:05.143Z,12.92
2023-02-19T11:25:05.091Z,12.9
2023-02-19T11:26:05.078Z,12.93
2023-02-19T11:27:05.092Z,13
2023-02-19T11:28:05.094Z,13.08
2023-02-19T11:29:05.093Z,13.12
2023-02-19T11:30:05.079Z,13.05
2023-02-19T11:31:05.117Z,12.97
2023-02-19T11:32:05.095Z,12.93
2023-02-19T11:33:05.079Z,12.94
2023-02-19T11:34:05.079Z,12.99
2023-02-19T11:35:05.095Z,13.02
2023-02-19T11:36:05.096Z,13.06
2023-02-19T11:37:05.080Z,13.01
2023-02-19T11:38:05.118Z,12.95
2023-02-19T11:39:05.095Z,12.93
2023-02-19T11:40:05.096Z,12.99
2023-02-19T11:41:05.082Z,13.06
2023-02-19T11:42:05.095Z,13.09
2023-02-19T11:43:05.095Z,13.09
2023-02-19T11:44:05.096Z,13.11
2023-02-19T11:45:05.082Z,13.16
2023-02-19T11:46:05.096Z,13.22
2023-02-19T11:47:05.097Z,13.25
2023-02-19T11:48:05.097Z,13.25
2023-02-19T11:49:19.514Z,13.23
2023-02-19T11:50:05.097Z,13.2
2023-02-19T11:51:05.099Z,13.17
2023-02-19T11:52:05.113Z,13.13
2023-02-19T11:53:05.084Z,13.12
2023-02-19T11:54:05.099Z,13.08
2023-02-19T11:55:05.100Z,13.02
2023-02-19T11:56:05.084Z,12.93
2023-02-19T11:57:05.085Z,12.85
2023-02-19T11:58:05.100Z,12.81
2023-02-19T11:59:05.164Z,12.82
2023-02-19T12:00:05.085Z,12.87
2023-02-19T12:01:05.100Z,12.92
2023-02-19T12:02:05.101Z,12.96
2023-02-19T12:03:05.101Z,13
2023-02-19T12:04:05.086Z,13.02
2023-02-19T12:05:05.100Z,13.03
2023-02-19T12:06:05.128Z,13.06
2023-02-19T12:07:05.101Z,13.05
2023-02-19T12:08:05.087Z,13
2023-02-19T12:09:21.579Z,12.97
2023-02-19T12:10:13.062Z,12.94
2023-02-19T12:11:05.102Z,12.94
2023-02-19T12:12:05.088Z,12.94
2023-02-19T12:13:05.102Z,12.95
2023-02-19T12:14:05.104Z,13.02
2023-02-19T12:15:05.089Z,13.13
2023-02-19T12:16:05.089Z,13.26
2023-02-19T12:17:05.104Z,13.41
2023-02-19T12:18:05.105Z,13.57
2023-02-19T12:19:05.090Z,13.71
2023-02-19T12:20:05.090Z,13.82
2023-02-19T12:21:05.105Z,13.87
2023-02-19T12:22:05.154Z,13.96
2023-02-19T12:23:05.090Z,14.04
2023-02-19T12:24:05.105Z,14.07
2023-02-19T12:25:05.106Z,14.04
2023-02-19T12:26:05.106Z,14.03
2023-02-19T12:27:05.092Z,14.01
2023-02-19T12:28:05.107Z,13.99
2023-02-19T12:29:05.109Z,13.97
2023-02-19T12:30:05.106Z,13.91
2023-02-19T12:31:05.093Z,13.83
2023-02-19T12:32:05.107Z,13.75
2023-02-19T12:33:05.109Z,13.71
2023-02-19T12:34:05.107Z,13.68
2023-02-19T12:35:05.093Z,13.65
2023-02-19T12:36:05.109Z,13.65
2023-02-19T12:37:05.110Z,13.66
2023-02-19T12:38:05.094Z,13.69
2023-02-19T12:39:05.094Z,13.75
2023-02-19T12:40:05.108Z,13.78
2023-02-19T12:41:05.110Z,13.8
2023-02-19T12:42:05.095Z,13.82
2023-02-19T12:43:05.109Z,13.83
2023-02-19T12:44:05.110Z,13.85
2023-02-19T12:45:05.111Z,13.87
2023-02-19T12:46:05.096Z,13.93
2023-02-19T12:47:05.110Z,14.24
2023-02-19T12:48:05.177Z,14.77
2023-02-19T12:49:05.111Z,14.87
2023-02-19T12:50:05.097Z,15.15
2023-02-19T12:51:05.111Z,15.75
2023-02-19T12:52:05.112Z,16.36
2023-02-19T12:53:05.112Z,16.85
2023-02-19T12:54:05.098Z,17.11
2023-02-19T12:55:21.614Z,17.02
2023-02-19T12:56:05.113Z,16.78
2023-02-19T12:57:05.100Z,16.54